sensor_id;sensor_type;location;lat;lon;timestamp;P1;durP1;ratioP1;P2;durP2;ratioP2
34296;SDS011;20564;42.902;25.336;2022-11-14T00:01:19;3.72;;;2.03;;
34296;SDS011;20564;42.902;25.336;2022-11-14T00:03:50;4.82;;;2.70;;
34296;SDS011;20564;42.902;25.336;2022-11-14T00:06:20;3.55;;;2.17;;
34296;SDS011;20564;42.902;25.336;2022-11-14T00:08:47;5.28;;;2.78;;
34296;SDS011;20564;42.902;25.336;2022-11-14T00:11:14;3.63;;;2.05;;
34296;SDS011;20564;42.902;25.336;2022-11-14T00:13:42;8.73;;;2.33;;
34296;SDS011;20564;42.902;25.336;2022-11-14T00:16:09;2.88;;;2.25;;
34296;SDS011;20564;42.902;25.336;2022-11-14T00:18:36;3.33;;;1.80;;
34296;SDS011;20564;42.902;25.336;2022-11-14T00:21:04;5.07;;;3.05;;
34296;SDS011;20564;42.902;25.336;2022-11-14T00:23:31;1.30;;;1.08;;
34296;SDS011;20564;42.902;25.336;2022-11-14T00:26:02;4.82;;;2.97;;
34296;SDS011;20564;42.902;25.336;2022-11-14T00:28:30;2.13;;;1.77;;
34296;SDS011;20564;42.902;25.336;2022-11-14T00:31:00;2.97;;;1.50;;
34296;SDS011;20564;42.902;25.336;2022-11-14T00:33:27;3.03;;;2.00;;
34296;SDS011;20564;42.902;25.336;2022-11-14T00:39:33;3.25;;;1.58;;
34296;SDS011;20564;42.902;25.336;2022-11-14T00:42:15;4.10;;;2.00;;
34296;SDS011;20564;42.902;25.336;2022-11-14T00:44:54;4.38;;;1.95;;
34296;SDS011;20564;42.902;25.336;2022-11-14T00:47:22;4.47;;;2.47;;
34296;SDS011;20564;42.902;25.336;2022-11-14T00:49:53;3.63;;;2.25;;
34296;SDS011;20564;42.902;25.336;2022-11-14T00:52:53;3.05;;;1.98;;
34296;SDS011;20564;42.902;25.336;2022-11-14T00:55:30;5.65;;;2.75;;
34296;SDS011;20564;42.902;25.336;2022-11-14T00:58:07;5.75;;;2.25;;
34296;SDS011;20564;42.902;25.336;2022-11-14T01:01:12;4.93;;;1.88;;
34296;SDS011;20564;42.902;25.336;2022-11-14T01:04:02;5.18;;;2.00;;
34296;SDS011;20564;42.902;25.336;2022-11-14T01:06:37;2.05;;;1.33;;
34296;SDS011;20564;42.902;25.336;2022-11-14T01:09:26;5.93;;;1.63;;
34296;SDS011;20564;42.902;25.336;2022-11-14T01:12:08;3.25;;;1.85;;
34296;SDS011;20564;42.902;25.336;2022-11-14T01:14:40;2.55;;;1.98;;
34296;SDS011;20564;42.902;25.336;2022-11-14T01:17:07;3.95;;;1.92;;
34296;SDS011;20564;42.902;25.336;2022-11-14T01:19:35;4.45;;;2.40;;
34296;SDS011;20564;42.902;25.336;2022-11-14T01:22:02;3.05;;;1.38;;
34296;SDS011;20564;42.902;25.336;2022-11-14T01:24:32;2.90;;;1.77;;
34296;SDS011;20564;42.902;25.336;2022-11-14T01:27:00;3.67;;;2.50;;
34296;SDS011;20564;42.902;25.336;2022-11-14T01:29:28;4.30;;;2.45;;
34296;SDS011;20564;42.902;25.336;2022-11-14T01:31:58;4.53;;;2.15;;
34296;SDS011;20564;42.902;25.336;2022-11-14T01:34:26;2.10;;;0.82;;
34296;SDS011;20564;42.902;25.336;2022-11-14T01:36:55;4.90;;;1.52;;
34296;SDS011;20564;42.902;25.336;2022-11-14T01:39:22;3.92;;;2.05;;
34296;SDS011;20564;42.902;25.336;2022-11-14T01:41:51;2.60;;;1.40;;
34296;SDS011;20564;42.902;25.336;2022-11-14T01:47:17;2.70;;;1.27;;
34296;SDS011;20564;42.902;25.336;2022-11-14T01:50:05;2.30;;;1.40;;
34296;SDS011;20564;42.902;25.336;2022-11-14T01:52:34;10.13;;;2.72;;
34296;SDS011;20564;42.902;25.336;2022-11-14T01:55:05;1.67;;;1.23;;
34296;SDS011;20564;42.902;25.336;2022-11-14T01:57:41;2.42;;;1.13;;
34296;SDS011;20564;42.902;25.336;2022-11-14T02:00:14;3.95;;;1.75;;
34296;SDS011;20564;42.902;25.336;2022-11-14T02:02:44;2.42;;;1.20;;
34296;SDS011;20564;42.902;25.336;2022-11-14T02:05:13;1.67;;;1.33;;
34296;SDS011;20564;42.902;25.336;2022-11-14T02:07:42;2.33;;;2.03;;
34296;SDS011;20564;42.902;25.336;2022-11-14T02:10:15;2.80;;;1.95;;
34296;SDS011;20564;42.902;25.336;2022-11-14T02:12:45;5.20;;;1.85;;
34296;SDS011;20564;42.902;25.336;2022-11-14T02:15:13;6.20;;;2.65;;
34296;SDS011;20564;42.902;25.336;2022-11-14T02:17:41;4.45;;;1.60;;
34296;SDS011;20564;42.902;25.336;2022-11-14T02:22:38;4.43;;;1.77;;
34296;SDS011;20564;42.902;25.336;2022-11-14T02:25:07;1.63;;;0.90;;
34296;SDS011;20564;42.902;25.336;2022-11-14T02:27:36;2.78;;;1.58;;
34296;SDS011;20564;42.902;25.336;2022-11-14T02:30:06;3.45;;;1.90;;
34296;SDS011;20564;42.902;25.336;2022-11-14T02:32:37;2.13;;;1.20;;
34296;SDS011;20564;42.902;25.336;2022-11-14T02:35:24;2.25;;;1.35;;
34296;SDS011;20564;42.902;25.336;2022-11-14T02:37:52;2.55;;;1.48;;
34296;SDS011;20564;42.902;25.336;2022-11-14T02:40:19;4.28;;;1.83;;
34296;SDS011;20564;42.902;25.336;2022-11-14T02:42:46;1.90;;;0.65;;
34296;SDS011;20564;42.902;25.336;2022-11-14T02:45:14;1.35;;;0.80;;
34296;SDS011;20564;42.902;25.336;2022-11-14T02:47:41;2.58;;;1.30;;
34296;SDS011;20564;42.902;25.336;2022-11-14T02:50:08;1.50;;;1.20;;
34296;SDS011;20564;42.902;25.336;2022-11-14T02:52:36;3.03;;;1.38;;
34296;SDS011;20564;42.902;25.336;2022-11-14T02:55:03;5.37;;;2.23;;
34296;SDS011;20564;42.902;25.336;2022-11-14T02:57:31;2.25;;;1.55;;
34296;SDS011;20564;42.902;25.336;2022-11-14T02:59:59;3.40;;;1.75;;
34296;SDS011;20564;42.902;25.336;2022-11-14T03:02:26;3.03;;;1.87;;
34296;SDS011;20564;42.902;25.336;2022-11-14T03:04:53;1.67;;;1.17;;
34296;SDS011;20564;42.902;25.336;2022-11-14T03:07:20;0.88;;;0.43;;
34296;SDS011;20564;42.902;25.336;2022-11-14T03:09:48;2.90;;;1.67;;
34296;SDS011;20564;42.902;25.336;2022-11-14T03:12:16;5.13;;;2.90;;
34296;SDS011;20564;42.902;25.336;2022-11-14T03:14:44;2.47;;;1.27;;
34296;SDS011;20564;42.902;25.336;2022-11-14T03:17:12;4.07;;;2.08;;
34296;SDS011;20564;42.902;25.336;2022-11-14T03:19:40;2.38;;;1.30;;
34296;SDS011;20564;42.902;25.336;2022-11-14T03:22:07;2.25;;;1.35;;
34296;SDS011;20564;42.902;25.336;2022-11-14T03:24:34;2.53;;;1.60;;
34296;SDS011;20564;42.902;25.336;2022-11-14T03:27:02;0.68;;;0.68;;
34296;SDS011;20564;42.902;25.336;2022-11-14T03:29:29;5.30;;;1.88;;
34296;SDS011;20564;42.902;25.336;2022-11-14T03:31:59;1.38;;;1.10;;
34296;SDS011;20564;42.902;25.336;2022-11-14T03:34:27;2.33;;;1.35;;
34296;SDS011;20564;42.902;25.336;2022-11-14T03:36:54;5.07;;;1.35;;
34296;SDS011;20564;42.902;25.336;2022-11-14T03:39:22;4.43;;;2.13;;
34296;SDS011;20564;42.902;25.336;2022-11-14T03:41:49;5.80;;;1.30;;
34296;SDS011;20564;42.902;25.336;2022-11-14T03:44:17;2.58;;;1.77;;
34296;SDS011;20564;42.902;25.336;2022-11-14T03:46:47;1.45;;;1.17;;
34296;SDS011;20564;42.902;25.336;2022-11-14T03:49:24;2.80;;;1.60;;
34296;SDS011;20564;42.902;25.336;2022-11-14T03:51:51;3.23;;;1.80;;
34296;SDS011;20564;42.902;25.336;2022-11-14T03:54:19;4.85;;;1.50;;
34296;SDS011;20564;42.902;25.336;2022-11-14T03:56:50;2.42;;;1.73;;
34296;SDS011;20564;42.902;25.336;2022-11-14T03:59:17;7.30;;;2.60;;
34296;SDS011;20564;42.902;25.336;2022-11-14T04:01:44;1.10;;;1.02;;
34296;SDS011;20564;42.902;25.336;2022-11-14T04:04:21;5.82;;;2.20;;
34296;SDS011;20564;42.902;25.336;2022-11-14T04:06:51;2.15;;;1.52;;
34296;SDS011;20564;42.902;25.336;2022-11-14T04:09:18;2.83;;;1.63;;
34296;SDS011;20564;42.902;25.336;2022-11-14T04:11:46;3.17;;;1.63;;
34296;SDS011;20564;42.902;25.336;2022-11-14T04:14:13;1.40;;;1.10;;
34296;SDS011;20564;42.902;25.336;2022-11-14T04:16:52;3.00;;;1.38;;
34296;SDS011;20564;42.902;25.336;2022-11-14T04:19:23;3.22;;;2.03;;
34296;SDS011;20564;42.902;25.336;2022-11-14T04:21:50;3.95;;;2.10;;
34296;SDS011;20564;42.902;25.336;2022-11-14T04:24:18;3.03;;;1.75;;
34296;SDS011;20564;42.902;25.336;2022-11-14T04:29:21;3.00;;;1.88;;
34296;SDS011;20564;42.902;25.336;2022-11-14T04:32:18;2.83;;;1.95;;
34296;SDS011;20564;42.902;25.336;2022-11-14T04:35:07;2.22;;;1.63;;
34296;SDS011;20564;42.902;25.336;2022-11-14T04:37:58;1.23;;;1.10;;
34296;SDS011;20564;42.902;25.336;2022-11-14T04:40:31;2.40;;;1.55;;
34296;SDS011;20564;42.902;25.336;2022-11-14T04:43:11;5.78;;;2.88;;
34296;SDS011;20564;42.902;25.336;2022-11-14T04:45:59;1.73;;;1.27;;
34296;SDS011;20564;42.902;25.336;2022-11-14T04:48:35;4.07;;;1.55;;
34296;SDS011;20564;42.902;25.336;2022-11-14T04:51:16;4.53;;;2.60;;
34296;SDS011;20564;42.902;25.336;2022-11-14T04:53:43;3.13;;;1.52;;
34296;SDS011;20564;42.902;25.336;2022-11-14T04:56:10;5.88;;;1.15;;
34296;SDS011;20564;42.902;25.336;2022-11-14T04:58:58;3.85;;;2.67;;
34296;SDS011;20564;42.902;25.336;2022-11-14T05:01:31;4.00;;;2.13;;
34296;SDS011;20564;42.902;25.336;2022-11-14T05:03:59;4.70;;;2.15;;
34296;SDS011;20564;42.902;25.336;2022-11-14T05:06:26;1.40;;;1.30;;
34296;SDS011;20564;42.902;25.336;2022-11-14T05:08:54;3.95;;;2.30;;
34296;SDS011;20564;42.902;25.336;2022-11-14T05:11:21;7.07;;;3.63;;
34296;SDS011;20564;42.902;25.336;2022-11-14T05:13:54;4.57;;;2.30;;
34296;SDS011;20564;42.902;25.336;2022-11-14T05:16:21;3.85;;;2.30;;
34296;SDS011;20564;42.902;25.336;2022-11-14T05:18:48;6.15;;;2.38;;
34296;SDS011;20564;42.902;25.336;2022-11-14T05:21:19;3.40;;;2.10;;
34296;SDS011;20564;42.902;25.336;2022-11-14T05:23:46;11.02;;;3.55;;
34296;SDS011;20564;42.902;25.336;2022-11-14T05:26:15;7.72;;;3.45;;
34296;SDS011;20564;42.902;25.336;2022-11-14T05:28:43;8.85;;;3.13;;
34296;SDS011;20564;42.902;25.336;2022-11-14T05:31:12;5.25;;;2.38;;
34296;SDS011;20564;42.902;25.336;2022-11-14T05:33:40;8.73;;;4.43;;
34296;SDS011;20564;42.902;25.336;2022-11-14T05:36:08;3.58;;;2.10;;
34296;SDS011;20564;42.902;25.336;2022-11-14T05:38:40;4.97;;;2.88;;
34296;SDS011;20564;42.902;25.336;2022-11-14T05:46:04;2.72;;;1.75;;
34296;SDS011;20564;42.902;25.336;2022-11-14T05:48:32;4.25;;;2.85;;
34296;SDS011;20564;42.902;25.336;2022-11-14T05:51:00;4.80;;;2.97;;
34296;SDS011;20564;42.902;25.336;2022-11-14T05:53:29;7.13;;;3.20;;
34296;SDS011;20564;42.902;25.336;2022-11-14T05:55:59;4.70;;;2.65;;
34296;SDS011;20564;42.902;25.336;2022-11-14T05:58:28;4.72;;;3.00;;
34296;SDS011;20564;42.902;25.336;2022-11-14T06:01:02;6.20;;;3.58;;
34296;SDS011;20564;42.902;25.336;2022-11-14T06:03:35;5.47;;;3.60;;
34296;SDS011;20564;42.902;25.336;2022-11-14T06:06:05;6.60;;;3.83;;
34296;SDS011;20564;42.902;25.336;2022-11-14T06:08:35;5.22;;;3.55;;
34296;SDS011;20564;42.902;25.336;2022-11-14T06:11:03;5.45;;;2.78;;
34296;SDS011;20564;42.902;25.336;2022-11-14T06:13:32;5.53;;;2.38;;
34296;SDS011;20564;42.902;25.336;2022-11-14T06:16:05;7.40;;;4.30;;
34296;SDS011;20564;42.902;25.336;2022-11-14T06:18:34;4.70;;;2.88;;
34296;SDS011;20564;42.902;25.336;2022-11-14T06:21:06;4.75;;;1.90;;
34296;SDS011;20564;42.902;25.336;2022-11-14T06:23:36;3.05;;;2.30;;
34296;SDS011;20564;42.902;25.336;2022-11-14T06:26:05;4.35;;;2.00;;
34296;SDS011;20564;42.902;25.336;2022-11-14T06:28:33;4.38;;;1.58;;
34296;SDS011;20564;42.902;25.336;2022-11-14T06:31:01;2.03;;;1.40;;
34296;SDS011;20564;42.902;25.336;2022-11-14T06:33:32;3.22;;;1.58;;
34296;SDS011;20564;42.902;25.336;2022-11-14T06:36:02;6.43;;;2.50;;
34296;SDS011;20564;42.902;25.336;2022-11-14T06:38:31;6.60;;;2.67;;
34296;SDS011;20564;42.902;25.336;2022-11-14T06:41:03;3.95;;;1.83;;
34296;SDS011;20564;42.902;25.336;2022-11-14T06:43:32;3.80;;;2.58;;
34296;SDS011;20564;42.902;25.336;2022-11-14T06:46:01;2.67;;;1.75;;
34296;SDS011;20564;42.902;25.336;2022-11-14T06:53:24;1.65;;;1.02;;
34296;SDS011;20564;42.902;25.336;2022-11-14T06:58:24;3.67;;;1.92;;
34296;SDS011;20564;42.902;25.336;2022-11-14T07:00:52;6.93;;;2.05;;
34296;SDS011;20564;42.902;25.336;2022-11-14T07:03:20;6.88;;;2.72;;
34296;SDS011;20564;42.902;25.336;2022-11-14T07:05:48;6.05;;;3.33;;
34296;SDS011;20564;42.902;25.336;2022-11-14T07:08:15;8.93;;;4.38;;
34296;SDS011;20564;42.902;25.336;2022-11-14T07:10:46;9.43;;;6.13;;
34296;SDS011;20564;42.902;25.336;2022-11-14T07:13:14;14.30;;;8.48;;
34296;SDS011;20564;42.902;25.336;2022-11-14T07:15:50;15.40;;;9.73;;
34296;SDS011;20564;42.902;25.336;2022-11-14T07:18:18;21.33;;;12.75;;
34296;SDS011;20564;42.902;25.336;2022-11-14T07:20:46;18.63;;;12.75;;
34296;SDS011;20564;42.902;25.336;2022-11-14T07:23:13;23.90;;;14.15;;
34296;SDS011;20564;42.902;25.336;2022-11-14T07:25:47;23.92;;;13.05;;
34296;SDS011;20564;42.902;25.336;2022-11-14T07:28:14;19.23;;;10.65;;
34296;SDS011;20564;42.902;25.336;2022-11-14T07:30:42;17.40;;;10.88;;
34296;SDS011;20564;42.902;25.336;2022-11-14T07:33:09;16.58;;;10.55;;
34296;SDS011;20564;42.902;25.336;2022-11-14T07:35:39;23.93;;;9.10;;
34296;SDS011;20564;42.902;25.336;2022-11-14T07:38:07;16.70;;;10.52;;
34296;SDS011;20564;42.902;25.336;2022-11-14T07:40:34;16.23;;;10.40;;
34296;SDS011;20564;42.902;25.336;2022-11-14T07:43:01;12.47;;;8.50;;
34296;SDS011;20564;42.902;25.336;2022-11-14T07:47:56;6.88;;;4.53;;
34296;SDS011;20564;42.902;25.336;2022-11-14T07:50:25;10.98;;;6.75;;
34296;SDS011;20564;42.902;25.336;2022-11-14T07:52:57;11.85;;;6.05;;
34296;SDS011;20564;42.902;25.336;2022-11-14T07:55:24;20.03;;;8.10;;
34296;SDS011;20564;42.902;25.336;2022-11-14T07:57:52;13.80;;;7.43;;
34296;SDS011;20564;42.902;25.336;2022-11-14T08:00:20;15.57;;;9.07;;
34296;SDS011;20564;42.902;25.336;2022-11-14T08:02:47;13.18;;;8.43;;
34296;SDS011;20564;42.902;25.336;2022-11-14T08:05:15;22.77;;;12.05;;
34296;SDS011;20564;42.902;25.336;2022-11-14T08:10:11;27.95;;;11.82;;
34296;SDS011;20564;42.902;25.336;2022-11-14T08:12:39;18.00;;;10.98;;
34296;SDS011;20564;42.902;25.336;2022-11-14T08:15:07;21.45;;;12.82;;
34296;SDS011;20564;42.902;25.336;2022-11-14T08:17:35;13.25;;;9.10;;
34296;SDS011;20564;42.902;25.336;2022-11-14T08:20:03;22.05;;;11.07;;
34296;SDS011;20564;42.902;25.336;2022-11-14T08:22:31;9.85;;;5.47;;
34296;SDS011;20564;42.902;25.336;2022-11-14T08:24:59;9.57;;;5.55;;
34296;SDS011;20564;42.902;25.336;2022-11-14T08:27:26;9.27;;;4.80;;
34296;SDS011;20564;42.902;25.336;2022-11-14T08:29:53;13.02;;;6.68;;
34296;SDS011;20564;42.902;25.336;2022-11-14T08:32:20;11.90;;;6.82;;
34296;SDS011;20564;42.902;25.336;2022-11-14T08:34:49;14.95;;;5.70;;
34296;SDS011;20564;42.902;25.336;2022-11-14T08:37:16;13.80;;;6.78;;
34296;SDS011;20564;42.902;25.336;2022-11-14T08:39:43;11.90;;;4.53;;
34296;SDS011;20564;42.902;25.336;2022-11-14T08:42:10;11.15;;;5.68;;
34296;SDS011;20564;42.902;25.336;2022-11-14T08:44:37;10.93;;;5.30;;
34296;SDS011;20564;42.902;25.336;2022-11-14T08:47:04;7.07;;;4.10;;
34296;SDS011;20564;42.902;25.336;2022-11-14T08:49:31;7.43;;;4.20;;
34296;SDS011;20564;42.902;25.336;2022-11-14T08:51:59;6.53;;;3.58;;
34296;SDS011;20564;42.902;25.336;2022-11-14T08:54:26;7.40;;;4.03;;
34296;SDS011;20564;42.902;25.336;2022-11-14T08:56:53;7.30;;;3.30;;
34296;SDS011;20564;42.902;25.336;2022-11-14T08:59:20;4.38;;;2.22;;
34296;SDS011;20564;42.902;25.336;2022-11-14T09:01:47;8.00;;;4.60;;
34296;SDS011;20564;42.902;25.336;2022-11-14T09:04:15;5.65;;;3.17;;
34296;SDS011;20564;42.902;25.336;2022-11-14T09:06:42;8.57;;;3.65;;
34296;SDS011;20564;42.902;25.336;2022-11-14T09:09:11;4.53;;;2.13;;
34296;SDS011;20564;42.902;25.336;2022-11-14T09:11:41;7.22;;;3.00;;
34296;SDS011;20564;42.902;25.336;2022-11-14T09:14:09;4.43;;;2.05;;
34296;SDS011;20564;42.902;25.336;2022-11-14T09:16:36;3.50;;;1.40;;
34296;SDS011;20564;42.902;25.336;2022-11-14T09:19:03;4.27;;;2.07;;
34296;SDS011;20564;42.902;25.336;2022-11-14T09:21:31;3.80;;;1.95;;
34296;SDS011;20564;42.902;25.336;2022-11-14T09:23:58;5.13;;;2.15;;
34296;SDS011;20564;42.902;25.336;2022-11-14T09:26:27;4.72;;;2.00;;
34296;SDS011;20564;42.902;25.336;2022-11-14T09:28:54;5.63;;;1.80;;
34296;SDS011;20564;42.902;25.336;2022-11-14T09:31:27;2.33;;;1.58;;
34296;SDS011;20564;42.902;25.336;2022-11-14T09:33:56;3.58;;;1.60;;
34296;SDS011;20564;42.902;25.336;2022-11-14T09:36:26;5.10;;;2.15;;
34296;SDS011;20564;42.902;25.336;2022-11-14T09:38:54;6.70;;;2.25;;
34296;SDS011;20564;42.902;25.336;2022-11-14T09:41:22;3.63;;;1.35;;
34296;SDS011;20564;42.902;25.336;2022-11-14T09:46:47;6.50;;;3.47;;
34296;SDS011;20564;42.902;25.336;2022-11-14T09:52:00;5.20;;;2.70;;
34296;SDS011;20564;42.902;25.336;2022-11-14T09:54:55;7.10;;;2.97;;
34296;SDS011;20564;42.902;25.336;2022-11-14T09:57:24;6.35;;;3.05;;
34296;SDS011;20564;42.902;25.336;2022-11-14T09:59:52;7.80;;;2.58;;
34296;SDS011;20564;42.902;25.336;2022-11-14T10:02:32;7.25;;;3.10;;
34296;SDS011;20564;42.902;25.336;2022-11-14T10:13:12;5.20;;;2.58;;
34296;SDS011;20564;42.902;25.336;2022-11-14T10:27:37;6.57;;;2.97;;
34296;SDS011;20564;42.902;25.336;2022-11-14T10:30:36;5.32;;;3.00;;
34296;SDS011;20564;42.902;25.336;2022-11-14T10:33:16;6.95;;;2.63;;
34296;SDS011;20564;42.902;25.336;2022-11-14T10:42:11;4.82;;;2.28;;
34296;SDS011;20564;42.902;25.336;2022-11-14T10:44:46;9.88;;;3.15;;
34296;SDS011;20564;42.902;25.336;2022-11-14T10:47:34;7.13;;;3.38;;
34296;SDS011;20564;42.902;25.336;2022-11-14T10:50:27;7.85;;;2.88;;
34296;SDS011;20564;42.902;25.336;2022-11-14T10:56:17;16.75;;;3.70;;
34296;SDS011;20564;42.902;25.336;2022-11-14T10:58:43;7.38;;;2.85;;
34296;SDS011;20564;42.902;25.336;2022-11-14T11:06:48;5.32;;;2.28;;
34296;SDS011;20564;42.902;25.336;2022-11-14T11:09:34;3.50;;;1.80;;
34296;SDS011;20564;42.902;25.336;2022-11-14T11:12:40;5.95;;;2.20;;
34296;SDS011;20564;42.902;25.336;2022-11-14T11:15:16;3.80;;;2.60;;
34296;SDS011;20564;42.902;25.336;2022-11-14T11:18:00;3.28;;;1.70;;
34296;SDS011;20564;42.902;25.336;2022-11-14T11:20:32;3.83;;;1.83;;
34296;SDS011;20564;42.902;25.336;2022-11-14T11:23:03;4.45;;;2.47;;
34296;SDS011;20564;42.902;25.336;2022-11-14T11:25:32;4.50;;;2.20;;
34296;SDS011;20564;42.902;25.336;2022-11-14T11:28:04;4.35;;;1.90;;
34296;SDS011;20564;42.902;25.336;2022-11-14T11:30:59;5.03;;;2.20;;
34296;SDS011;20564;42.902;25.336;2022-11-14T11:36:00;3.47;;;2.28;;
34296;SDS011;20564;42.902;25.336;2022-11-14T11:38:33;4.97;;;2.10;;
34296;SDS011;20564;42.902;25.336;2022-11-14T11:44:32;4.25;;;2.22;;
34296;SDS011;20564;42.902;25.336;2022-11-14T11:47:03;3.67;;;1.98;;
34296;SDS011;20564;42.902;25.336;2022-11-14T11:54:52;4.53;;;2.50;;
34296;SDS011;20564;42.902;25.336;2022-11-14T11:57:36;4.85;;;2.30;;
34296;SDS011;20564;42.902;25.336;2022-11-14T12:02:47;3.30;;;1.83;;
34296;SDS011;20564;42.902;25.336;2022-11-14T12:05:30;6.03;;;1.88;;
34296;SDS011;20564;42.902;25.336;2022-11-14T12:10:52;6.13;;;2.25;;
34296;SDS011;20564;42.902;25.336;2022-11-14T12:13:39;4.93;;;2.15;;
34296;SDS011;20564;42.902;25.336;2022-11-14T12:22:21;4.82;;;2.88;;
34296;SDS011;20564;42.902;25.336;2022-11-14T12:30:39;4.38;;;2.08;;
34296;SDS011;20564;42.902;25.336;2022-11-14T12:33:15;4.63;;;1.98;;
34296;SDS011;20564;42.902;25.336;2022-11-14T12:35:50;6.20;;;2.28;;
34296;SDS011;20564;42.902;25.336;2022-11-14T12:38:29;9.88;;;2.67;;
34296;SDS011;20564;42.902;25.336;2022-11-14T12:41:07;5.25;;;2.25;;
34296;SDS011;20564;42.902;25.336;2022-11-14T12:46:06;4.40;;;2.20;;
34296;SDS011;20564;42.902;25.336;2022-11-14T12:48:41;5.45;;;2.65;;
34296;SDS011;20564;42.902;25.336;2022-11-14T12:53:53;6.03;;;2.97;;
34296;SDS011;20564;42.902;25.336;2022-11-14T13:12:37;4.90;;;2.67;;
34296;SDS011;20564;42.902;25.336;2022-11-14T13:21:25;7.85;;;3.53;;
34296;SDS011;20564;42.902;25.336;2022-11-14T13:24:16;5.35;;;3.20;;
34296;SDS011;20564;42.902;25.336;2022-11-14T13:26:45;5.15;;;2.58;;
34296;SDS011;20564;42.902;25.336;2022-11-14T13:29:51;5.45;;;2.65;;
34296;SDS011;20564;42.902;25.336;2022-11-14T13:32:10;4.90;;;3.03;;
34296;SDS011;20564;42.902;25.336;2022-11-14T13:34:43;5.18;;;3.15;;
34296;SDS011;20564;42.902;25.336;2022-11-14T13:37:22;4.90;;;2.88;;
34296;SDS011;20564;42.902;25.336;2022-11-14T13:43:15;6.45;;;2.58;;
34296;SDS011;20564;42.902;25.336;2022-11-14T13:46:13;6.70;;;3.50;;
34296;SDS011;20564;42.902;25.336;2022-11-14T13:49:09;3.13;;;2.03;;
34296;SDS011;20564;42.902;25.336;2022-11-14T13:51:49;3.83;;;2.50;;
34296;SDS011;20564;42.902;25.336;2022-11-14T13:54:19;9.70;;;4.25;;
34296;SDS011;20564;42.902;25.336;2022-11-14T13:59:47;5.07;;;2.17;;
34296;SDS011;20564;42.902;25.336;2022-11-14T14:02:29;7.28;;;3.83;;
34296;SDS011;20564;42.902;25.336;2022-11-14T14:05:45;8.05;;;3.75;;
34296;SDS011;20564;42.902;25.336;2022-11-14T14:08:30;4.70;;;2.70;;
34296;SDS011;20564;42.902;25.336;2022-11-14T14:19:17;4.78;;;2.70;;
34296;SDS011;20564;42.902;25.336;2022-11-14T14:24:58;9.82;;;4.57;;
34296;SDS011;20564;42.902;25.336;2022-11-14T14:30:23;7.65;;;3.92;;
34296;SDS011;20564;42.902;25.336;2022-11-14T14:33:09;4.20;;;2.50;;
34296;SDS011;20564;42.902;25.336;2022-11-14T14:35:38;7.38;;;3.72;;
34296;SDS011;20564;42.902;25.336;2022-11-14T14:43:29;8.77;;;4.93;;
34296;SDS011;20564;42.902;25.336;2022-11-14T14:46:02;6.78;;;3.80;;
34296;SDS011;20564;42.902;25.336;2022-11-14T14:48:29;11.38;;;3.33;;
34296;SDS011;20564;42.902;25.336;2022-11-14T14:51:00;12.25;;;4.75;;
34296;SDS011;20564;42.902;25.336;2022-11-14T14:53:33;10.95;;;5.05;;
34296;SDS011;20564;42.902;25.336;2022-11-14T14:56:04;7.75;;;4.47;;
34296;SDS011;20564;42.902;25.336;2022-11-14T14:58:42;10.45;;;4.65;;
34296;SDS011;20564;42.902;25.336;2022-11-14T15:01:13;7.85;;;4.03;;
34296;SDS011;20564;42.902;25.336;2022-11-14T15:03:49;8.50;;;3.25;;
34296;SDS011;20564;42.902;25.336;2022-11-14T15:06:35;7.03;;;4.38;;
34296;SDS011;20564;42.902;25.336;2022-11-14T15:09:12;8.52;;;3.65;;
34296;SDS011;20564;42.902;25.336;2022-11-14T15:11:43;6.32;;;3.30;;
34296;SDS011;20564;42.902;25.336;2022-11-14T15:14:14;4.03;;;2.60;;
34296;SDS011;20564;42.902;25.336;2022-11-14T15:16:47;5.93;;;3.38;;
34296;SDS011;20564;42.902;25.336;2022-11-14T15:19:19;6.05;;;3.38;;
34296;SDS011;20564;42.902;25.336;2022-11-14T15:22:03;6.63;;;3.83;;
34296;SDS011;20564;42.902;25.336;2022-11-14T15:27:53;4.88;;;3.25;;
34296;SDS011;20564;42.902;25.336;2022-11-14T15:30:23;7.55;;;4.32;;
34296;SDS011;20564;42.902;25.336;2022-11-14T15:32:54;11.18;;;4.53;;
34296;SDS011;20564;42.902;25.336;2022-11-14T15:35:28;6.07;;;3.03;;
34296;SDS011;20564;42.902;25.336;2022-11-14T15:41:09;5.13;;;3.30;;
34296;SDS011;20564;42.902;25.336;2022-11-14T15:48:56;5.97;;;3.78;;
34296;SDS011;20564;42.902;25.336;2022-11-14T15:54:28;6.85;;;4.40;;
34296;SDS011;20564;42.902;25.336;2022-11-14T15:57:19;8.07;;;4.40;;
34296;SDS011;20564;42.902;25.336;2022-11-14T15:59:44;8.10;;;4.75;;
34296;SDS011;20564;42.902;25.336;2022-11-14T16:02:17;10.65;;;4.32;;
34296;SDS011;20564;42.902;25.336;2022-11-14T16:04:49;7.97;;;4.15;;
34296;SDS011;20564;42.902;25.336;2022-11-14T16:07:19;9.05;;;4.60;;
34296;SDS011;20564;42.902;25.336;2022-11-14T16:09:46;13.48;;;5.75;;
34296;SDS011;20564;42.902;25.336;2022-11-14T16:12:14;11.00;;;4.97;;
34296;SDS011;20564;42.902;25.336;2022-11-14T16:14:41;9.23;;;4.85;;
34296;SDS011;20564;42.902;25.336;2022-11-14T16:17:13;11.57;;;6.55;;
34296;SDS011;20564;42.902;25.336;2022-11-14T16:19:41;9.07;;;5.03;;
34296;SDS011;20564;42.902;25.336;2022-11-14T16:22:12;6.95;;;3.17;;
34296;SDS011;20564;42.902;25.336;2022-11-14T16:24:43;7.63;;;4.75;;
34296;SDS011;20564;42.902;25.336;2022-11-14T16:30:39;10.18;;;5.25;;
34296;SDS011;20564;42.902;25.336;2022-11-14T16:33:43;7.88;;;4.30;;
34296;SDS011;20564;42.902;25.336;2022-11-14T16:36:19;8.85;;;4.65;;
34296;SDS011;20564;42.902;25.336;2022-11-14T16:38:51;5.05;;;2.88;;
34296;SDS011;20564;42.902;25.336;2022-11-14T16:41:36;9.90;;;4.93;;
34296;SDS011;20564;42.902;25.336;2022-11-14T16:44:15;5.75;;;3.95;;
34296;SDS011;20564;42.902;25.336;2022-11-14T16:47:12;7.95;;;3.70;;
34296;SDS011;20564;42.902;25.336;2022-11-14T16:49:59;11.90;;;5.63;;
34296;SDS011;20564;42.902;25.336;2022-11-14T16:52:36;9.55;;;4.03;;
34296;SDS011;20564;42.902;25.336;2022-11-14T16:55:07;6.32;;;3.95;;
34296;SDS011;20564;42.902;25.336;2022-11-14T16:57:42;7.88;;;4.88;;
34296;SDS011;20564;42.902;25.336;2022-11-14T17:00:13;8.32;;;4.85;;
34296;SDS011;20564;42.902;25.336;2022-11-14T17:02:42;10.73;;;4.78;;
34296;SDS011;20564;42.902;25.336;2022-11-14T17:07:37;10.40;;;4.78;;
34296;SDS011;20564;42.902;25.336;2022-11-14T17:10:11;14.13;;;6.50;;
34296;SDS011;20564;42.902;25.336;2022-11-14T17:12:43;24.65;;;14.27;;
34296;SDS011;20564;42.902;25.336;2022-11-14T17:15:11;10.65;;;6.63;;
34296;SDS011;20564;42.902;25.336;2022-11-14T17:17:42;15.30;;;7.07;;
34296;SDS011;20564;42.902;25.336;2022-11-14T17:20:16;10.32;;;5.70;;
34296;SDS011;20564;42.902;25.336;2022-11-14T17:25:12;9.38;;;5.45;;
34296;SDS011;20564;42.902;25.336;2022-11-14T17:27:39;8.75;;;5.90;;
34296;SDS011;20564;42.902;25.336;2022-11-14T17:30:10;10.60;;;6.50;;
34296;SDS011;20564;42.902;25.336;2022-11-14T17:32:39;10.20;;;5.25;;
34296;SDS011;20564;42.902;25.336;2022-11-14T17:35:07;8.25;;;5.32;;
34296;SDS011;20564;42.902;25.336;2022-11-14T17:37:38;9.80;;;4.95;;
34296;SDS011;20564;42.902;25.336;2022-11-14T17:40:12;11.90;;;6.10;;
34296;SDS011;20564;42.902;25.336;2022-11-14T17:42:44;8.48;;;4.72;;
34296;SDS011;20564;42.902;25.336;2022-11-14T17:45:55;7.40;;;4.47;;
34296;SDS011;20564;42.902;25.336;2022-11-14T17:48:30;8.55;;;4.07;;
34296;SDS011;20564;42.902;25.336;2022-11-14T17:51:24;9.05;;;4.13;;
34296;SDS011;20564;42.902;25.336;2022-11-14T17:53:56;9.93;;;6.30;;
34296;SDS011;20564;42.902;25.336;2022-11-14T17:56:31;8.38;;;4.38;;